• Join FlightAware (Why Join?)
  • Login
  • US Flag 
08:10PM EST


 

Airport Tracker/Info


-or-


 

Live Flight TrackerFlight Track Log ✈ EJA951 ✈ 17-Mar-2014 ✈ KSUA - KJAX

Flight Track Log - Related Links

Times and Time Zones

All times are in EDT time to prevent confusion due to time zone crossing. See the EJA951 flight status page for this flight to view local times or setup timezone preferences in your user account.

Time Position Orientation Groundspeed Altitude Reporting Facility
EDT Latitude Longitude Course Direction KTS MPH feet Rate Location/Type
10:24AM 27.1675 -80.1783 127° Southeast 193 222 1,900  Level Miami Center
10:25AM 27.1364 -80.1311 127° Southeast 203 234 3,000 540 Climbing Miami Center
10:26AM 27.1247 -80.1875 257° West 197 227 3,100 540 Climbing Miami Center
10:27AM 27.1294 -80.2450 275° West 197 227 4,200 1,560 Climbing Miami Center
10:28AM 27.1836 -80.3017 317° Northwest 273 314 6,400 2,400 Climbing Miami Center
10:29AM 27.2311 -80.3700 308° West 271 312 9,200 2,280 Climbing Miami Center
10:30AM 27.2633 -80.4603 292° West 298 343 11,200 1,680 Climbing Miami Center
10:31AM 27.3106 -80.5564 299° West 338 389 12,700 1,440 Climbing Miami Center
10:32AM 27.3975 -80.6136 330° Northwest 372 428 14,200 1,500 Climbing Miami Center
10:33AM 27.4958 -80.6744 331° Northwest 382 440 15,800 1,500 Climbing Miami Center
10:34AM 27.5942 -80.7344 332° Northwest 394 453 17,300 1,140 Climbing Miami Center
10:35AM 27.6769 -80.7872 331° Northwest 395 455 18,200 780 Climbing Miami Center
10:36AM 27.7958 -80.8614 331° Northwest 406 467 19,000 360 Climbing Miami Center
10:37AM 27.8950 -80.9239 331° Northwest 411 473 19,000 -60 Level Miami Center
10:38AM 27.9903 -80.9836 331° Northwest 395 455 18,900  Descending Miami Center
10:39AM 28.0847 -81.0439 331° Northwest 392 451 19,000  Climbing Miami Center
10:40AM 28.1950 -81.1142 331° Northwest 402 463 19,000 -180 Level Miami Center
10:41AM 28.2986 -81.1797 331° Northwest 403 464 18,700 -720 Descending Miami Center
10:42AM 28.4022 -81.2478 330° Northwest 416 479 17,500 -840 Descending Jacksonville Center
10:43AM 28.5097 -81.3144 331° Northwest 428 493 17,000 -300 Descending Jacksonville Center
10:44AM 28.6189 -81.3767 333° Northwest 428 493 17,000  Level Jacksonville Center
10:45AM 28.7300 -81.4175 342° North 428 493 17,000  Level Jacksonville Center
10:46AM 28.8450 -81.4300 355° North 420 483 17,000  Level Jacksonville Center
10:47AM 28.9572 -81.4069 10° North 408 470 17,000  Level Jacksonville Center
10:48AM 29.0544 -81.3294 35° Northeast 399 459 17,000 -240 Level Jacksonville Center
10:49AM 29.1631 -81.3303 360° North 384 442 16,600 -960 Descending Jacksonville Center
10:50AM 29.2697 -81.3594 347° North 389 448 15,100 -1,080 Descending Jacksonville Center
10:51AM 29.3847 -81.3553 North 389 448 14,500 -600 Descending Jacksonville Center
10:52AM 29.5075 -81.3367 North 401 461 14,000 -300 Descending Jacksonville Center
10:53AM 29.5806 -81.3236 North 410 472 14,100 -240 Climbing Jacksonville Center
10:53AM 29.6222 -81.3158 North 406 467 13,800 -840 Descending Jacksonville Center
10:54AM 29.7203 -81.3119 North 379 436 13,000 -840 Descending Jacksonville Center
10:54AM 29.7286 -81.3164 335° Northwest 406 467 13,000 60 Level Jacksonville Center
10:55AM 29.8167 -81.3606 336° Northwest 369 425 13,100  Climbing Jacksonville Center
10:55AM 29.8231 -81.3628 343° North 375 432 13,000 -240 Descending Jacksonville Center
10:56AM 29.9175 -81.4044 339° North 363 418 12,900 -240 Descending Jacksonville Center
10:56AM 29.9175 -81.4069 270° West 369 425 12,800 -1,380 Descending Jacksonville Center
10:57AM 29.9975 -81.4511 334° Northwest 315 362 11,500 -1,440 Descending Jacksonville Center
10:57AM 29.9994 -81.4511 360° North 346 398 11,400 -1,800 Descending Jacksonville Center
10:58AM 30.0689 -81.4956 331° Northwest 298 343 9,700 -1,800 Descending Jacksonville Center
10:58AM 30.0731 -81.4981 333° Northwest 317 365 9,600 -1,920 Descending Jacksonville Center
10:59AM 30.1406 -81.5522 325° Northwest 302 348 7,800 -1,800 Descending Jacksonville Center
11:00AM 30.1617 -81.5714 322° Northwest 293 337 7,300 -1,740 Descending Jacksonville Center
11:00AM 30.2058 -81.6042 327° Northwest 292 336 6,100 -1,500 Descending Jacksonville Center
11:01AM 30.2186 -81.6281 302° West 261 300 5,800 -840 Descending Jacksonville Center
11:01AM 30.2336 -81.6736 291° West 258 297 5,300 -720 Descending Jacksonville Center
11:02AM 30.2422 -81.7025 289° West 217 250 5,000 -1,140 Descending Jacksonville Center
11:02AM 30.2572 -81.7406 295° West 223 257 4,200 -1,260 Descending Jacksonville Center
11:03AM 30.2572 -81.7503 270° West 220 253 4,100 -900 Descending Jacksonville Center
11:04AM 30.2953 -81.8075 308° West 217 250 3,200 -420 Descending Jacksonville Center
11:05AM 30.3667 -81.8525 331° Northwest 220 253 3,100 -240 Descending Jacksonville Center
11:06AM 30.4211 -81.8592 354° North 208 239 2,700 -540 Descending Jacksonville Center
11:07AM 30.4561 -81.8225 42° Northeast 231 266 2,200 -720 Descending Jacksonville Center
11:08AM 30.4725 -81.7767 67° East 168 193 1,500 -900 Descending Jacksonville Center
11:09AM 30.4867 -81.7258 72° East 155 178 600 -900 Descending Jacksonville Center
11:11AM 30.4833 -81.6833 14° North  Level FlightAware Approximate
11:18AM 30.4941 -81.6878 14° North  Level Estimated